sensor_id;sensor_type;location;lat;lon;timestamp;temperature;humidity
50955;DHT22;36966;48.064;-0.792;2023-02-18T00:00:47;15.40;58.20
50955;DHT22;36966;48.064;-0.792;2023-02-18T00:03:06;15.50;58.30
50955;DHT22;36966;48.064;-0.792;2023-02-18T00:05:27;15.40;58.20
50955;DHT22;36966;48.064;-0.792;2023-02-18T00:07:47;15.50;58.30
50955;DHT22;36966;48.064;-0.792;2023-02-18T00:10:10;15.50;58.20
50955;DHT22;36966;48.064;-0.792;2023-02-18T00:12:30;15.50;58.20
50955;DHT22;36966;48.064;-0.792;2023-02-18T00:14:50;15.40;58.10
50955;DHT22;36966;48.064;-0.792;2023-02-18T00:17:09;15.50;58.10
50955;DHT22;36966;48.064;-0.792;2023-02-18T00:19:28;15.40;58.10
50955;DHT22;36966;48.064;-0.792;2023-02-18T00:21:47;15.50;58.10
50955;DHT22;36966;48.064;-0.792;2023-02-18T00:24:07;15.50;58.10
50955;DHT22;36966;48.064;-0.792;2023-02-18T00:26:27;15.50;58.10
50955;DHT22;36966;48.064;-0.792;2023-02-18T00:28:47;15.50;58.10
50955;DHT22;36966;48.064;-0.792;2023-02-18T00:31:21;15.50;58.00
50955;DHT22;36966;48.064;-0.792;2023-02-18T00:33:41;15.50;58.00
50955;DHT22;36966;48.064;-0.792;2023-02-18T00:36:05;15.50;58.00
50955;DHT22;36966;48.064;-0.792;2023-02-18T00:38:24;15.50;58.00
50955;DHT22;36966;48.064;-0.792;2023-02-18T00:40:43;15.50;58.00
50955;DHT22;36966;48.064;-0.792;2023-02-18T00:43:03;15.50;57.90
50955;DHT22;36966;48.064;-0.792;2023-02-18T00:45:22;15.50;58.00
50955;DHT22;36966;48.064;-0.792;2023-02-18T00:47:42;15.50;57.90
50955;DHT22;36966;48.064;-0.792;2023-02-18T00:50:01;15.50;57.90
50955;DHT22;36966;48.064;-0.792;2023-02-18T00:52:20;15.50;57.90
50955;DHT22;36966;48.064;-0.792;2023-02-18T00:54:39;15.50;58.00
50955;DHT22;36966;48.064;-0.792;2023-02-18T00:56:59;15.50;57.80
50955;DHT22;36966;48.064;-0.792;2023-02-18T00:59:18;15.50;57.90
50955;DHT22;36966;48.064;-0.792;2023-02-18T01:01:37;15.50;57.90
50955;DHT22;36966;48.064;-0.792;2023-02-18T01:03:56;15.50;57.80
50955;DHT22;36966;48.064;-0.792;2023-02-18T01:06:16;15.60;57.80
50955;DHT22;36966;48.064;-0.792;2023-02-18T01:08:36;15.60;57.80
50955;DHT22;36966;48.064;-0.792;2023-02-18T01:10:57;15.60;57.80
50955;DHT22;36966;48.064;-0.792;2023-02-18T01:13:16;15.60;57.80
50955;DHT22;36966;48.064;-0.792;2023-02-18T01:15:35;15.60;57.80
50955;DHT22;36966;48.064;-0.792;2023-02-18T01:17:54;15.60;57.70
50955;DHT22;36966;48.064;-0.792;2023-02-18T01:20:14;15.60;57.70
50955;DHT22;36966;48.064;-0.792;2023-02-18T01:22:33;15.60;57.80
50955;DHT22;36966;48.064;-0.792;2023-02-18T01:24:53;15.70;57.80
50955;DHT22;36966;48.064;-0.792;2023-02-18T01:27:12;15.60;57.70
50955;DHT22;36966;48.064;-0.792;2023-02-18T01:29:31;15.60;57.70
50955;DHT22;36966;48.064;-0.792;2023-02-18T01:31:51;15.60;57.70
50955;DHT22;36966;48.064;-0.792;2023-02-18T01:34:10;15.60;57.70
50955;DHT22;36966;48.064;-0.792;2023-02-18T01:36:29;15.60;57.60
50955;DHT22;36966;48.064;-0.792;2023-02-18T01:38:48;15.60;57.70
50955;DHT22;36966;48.064;-0.792;2023-02-18T01:41:07;15.60;57.70
50955;DHT22;36966;48.064;-0.792;2023-02-18T01:43:27;15.60;57.60
50955;DHT22;36966;48.064;-0.792;2023-02-18T01:48:31;15.70;57.70
50955;DHT22;36966;48.064;-0.792;2023-02-18T01:50:55;15.70;57.60
50955;DHT22;36966;48.064;-0.792;2023-02-18T01:53:19;15.70;57.60
50955;DHT22;36966;48.064;-0.792;2023-02-18T01:55:39;15.70;57.60
50955;DHT22;36966;48.064;-0.792;2023-02-18T01:57:59;15.70;57.60
50955;DHT22;36966;48.064;-0.792;2023-02-18T02:00:20;15.70;57.60
50955;DHT22;36966;48.064;-0.792;2023-02-18T02:02:45;15.70;57.60
50955;DHT22;36966;48.064;-0.792;2023-02-18T02:05:06;15.60;57.50
50955;DHT22;36966;48.064;-0.792;2023-02-18T02:07:27;15.70;57.60
50955;DHT22;36966;48.064;-0.792;2023-02-18T02:09:48;15.70;57.50
50955;DHT22;36966;48.064;-0.792;2023-02-18T02:12:24;15.70;57.60
50955;DHT22;36966;48.064;-0.792;2023-02-18T02:17:15;15.70;57.50
50955;DHT22;36966;48.064;-0.792;2023-02-18T02:22:41;15.70;57.60
50955;DHT22;36966;48.064;-0.792;2023-02-18T02:38:05;15.70;57.40
50955;DHT22;36966;48.064;-0.792;2023-02-18T02:40:49;15.70;57.40
50955;DHT22;36966;48.064;-0.792;2023-02-18T02:46:27;15.70;57.40
50955;DHT22;36966;48.064;-0.792;2023-02-18T02:48:53;15.70;57.40
50955;DHT22;36966;48.064;-0.792;2023-02-18T02:51:49;15.70;57.40
50955;DHT22;36966;48.064;-0.792;2023-02-18T02:54:20;15.70;57.40
50955;DHT22;36966;48.064;-0.792;2023-02-18T02:56:40;15.70;57.30
50955;DHT22;36966;48.064;-0.792;2023-02-18T02:59:03;15.70;57.30
50955;DHT22;36966;48.064;-0.792;2023-02-18T03:06:58;15.70;57.30
50955;DHT22;36966;48.064;-0.792;2023-02-18T03:15:02;15.70;57.30
50955;DHT22;36966;48.064;-0.792;2023-02-18T03:19:53;15.70;57.30
50955;DHT22;36966;48.064;-0.792;2023-02-18T03:22:24;15.70;57.30
50955;DHT22;36966;48.064;-0.792;2023-02-18T03:24:50;15.70;57.30
50955;DHT22;36966;48.064;-0.792;2023-02-18T03:27:19;15.70;57.20
50955;DHT22;36966;48.064;-0.792;2023-02-18T03:29:41;15.70;57.30
50955;DHT22;36966;48.064;-0.792;2023-02-18T03:32:04;15.70;57.30
50955;DHT22;36966;48.064;-0.792;2023-02-18T03:34:29;15.70;57.30
50955;DHT22;36966;48.064;-0.792;2023-02-18T03:36:49;15.70;57.30
50955;DHT22;36966;48.064;-0.792;2023-02-18T03:39:13;15.70;57.30
50955;DHT22;36966;48.064;-0.792;2023-02-18T03:41:33;15.70;57.30
50955;DHT22;36966;48.064;-0.792;2023-02-18T03:43:58;15.70;57.20
50955;DHT22;36966;48.064;-0.792;2023-02-18T03:46:18;15.70;57.20
50955;DHT22;36966;48.064;-0.792;2023-02-18T03:48:38;15.70;57.20
50955;DHT22;36966;48.064;-0.792;2023-02-18T03:50:57;15.70;57.20
50955;DHT22;36966;48.064;-0.792;2023-02-18T03:53:16;15.70;57.20
50955;DHT22;36966;48.064;-0.792;2023-02-18T03:55:36;15.70;57.20
50955;DHT22;36966;48.064;-0.792;2023-02-18T03:57:55;15.70;57.20
50955;DHT22;36966;48.064;-0.792;2023-02-18T04:00:15;15.70;57.20
50955;DHT22;36966;48.064;-0.792;2023-02-18T04:02:34;15.70;57.20
50955;DHT22;36966;48.064;-0.792;2023-02-18T04:04:53;15.70;57.10
50955;DHT22;36966;48.064;-0.792;2023-02-18T04:07:13;15.70;57.20
50955;DHT22;36966;48.064;-0.792;2023-02-18T04:09:32;15.70;57.10
50955;DHT22;36966;48.064;-0.792;2023-02-18T04:11:51;15.70;57.10
50955;DHT22;36966;48.064;-0.792;2023-02-18T04:14:12;15.70;57.10
50955;DHT22;36966;48.064;-0.792;2023-02-18T04:16:32;15.70;57.10
50955;DHT22;36966;48.064;-0.792;2023-02-18T04:18:52;15.70;57.10
50955;DHT22;36966;48.064;-0.792;2023-02-18T04:21:11;15.70;57.10
50955;DHT22;36966;48.064;-0.792;2023-02-18T04:23:30;15.70;57.10
50955;DHT22;36966;48.064;-0.792;2023-02-18T04:25:49;15.70;57.10
50955;DHT22;36966;48.064;-0.792;2023-02-18T04:28:09;15.70;57.20
50955;DHT22;36966;48.064;-0.792;2023-02-18T04:30:31;15.70;57.00
50955;DHT22;36966;48.064;-0.792;2023-02-18T04:32:50;15.70;57.10
50955;DHT22;36966;48.064;-0.792;2023-02-18T04:35:09;15.70;57.10
50955;DHT22;36966;48.064;-0.792;2023-02-18T04:37:28;15.70;57.10
50955;DHT22;36966;48.064;-0.792;2023-02-18T04:39:47;15.70;57.10
50955;DHT22;36966;48.064;-0.792;2023-02-18T04:42:06;15.70;57.10
50955;DHT22;36966;48.064;-0.792;2023-02-18T04:44:28;15.70;57.10
50955;DHT22;36966;48.064;-0.792;2023-02-18T04:46:47;15.70;57.10
50955;DHT22;36966;48.064;-0.792;2023-02-18T04:49:06;15.70;57.10
50955;DHT22;36966;48.064;-0.792;2023-02-18T04:51:25;15.70;57.10
50955;DHT22;36966;48.064;-0.792;2023-02-18T04:53:44;15.70;57.10
50955;DHT22;36966;48.064;-0.792;2023-02-18T04:56:04;15.70;57.10
50955;DHT22;36966;48.064;-0.792;2023-02-18T04:58:24;15.60;57.10
50955;DHT22;36966;48.064;-0.792;2023-02-18T05:00:44;15.70;57.10
50955;DHT22;36966;48.064;-0.792;2023-02-18T05:03:03;15.70;57.10
50955;DHT22;36966;48.064;-0.792;2023-02-18T05:05:22;15.70;57.00
50955;DHT22;36966;48.064;-0.792;2023-02-18T05:07:41;15.70;57.10
50955;DHT22;36966;48.064;-0.792;2023-02-18T05:10:00;15.70;57.00
50955;DHT22;36966;48.064;-0.792;2023-02-18T05:12:19;15.70;57.10
50955;DHT22;36966;48.064;-0.792;2023-02-18T05:14:38;15.70;56.90
50955;DHT22;36966;48.064;-0.792;2023-02-18T05:16:57;15.70;56.90
50955;DHT22;36966;48.064;-0.792;2023-02-18T05:19:17;15.70;56.90
50955;DHT22;36966;48.064;-0.792;2023-02-18T05:21:36;15.70;56.90
50955;DHT22;36966;48.064;-0.792;2023-02-18T05:23:55;15.70;56.80
50955;DHT22;36966;48.064;-0.792;2023-02-18T05:26:14;15.70;56.80
50955;DHT22;36966;48.064;-0.792;2023-02-18T05:28:34;15.70;56.80
50955;DHT22;36966;48.064;-0.792;2023-02-18T05:30:53;15.70;56.70
50955;DHT22;36966;48.064;-0.792;2023-02-18T05:33:13;15.70;56.70
50955;DHT22;36966;48.064;-0.792;2023-02-18T05:35:32;15.70;56.60
50955;DHT22;36966;48.064;-0.792;2023-02-18T05:37:51;15.70;56.60
50955;DHT22;36966;48.064;-0.792;2023-02-18T05:40:11;15.70;56.60
50955;DHT22;36966;48.064;-0.792;2023-02-18T05:42:30;15.70;56.50
50955;DHT22;36966;48.064;-0.792;2023-02-18T05:44:50;15.70;56.40
50955;DHT22;36966;48.064;-0.792;2023-02-18T05:47:11;15.80;56.40
50955;DHT22;36966;48.064;-0.792;2023-02-18T05:49:31;15.80;56.40
50955;DHT22;36966;48.064;-0.792;2023-02-18T05:51:51;15.80;56.30
50955;DHT22;36966;48.064;-0.792;2023-02-18T05:54:10;15.80;56.30
50955;DHT22;36966;48.064;-0.792;2023-02-18T05:56:30;15.80;56.20
50955;DHT22;36966;48.064;-0.792;2023-02-18T05:58:49;15.80;56.20
50955;DHT22;36966;48.064;-0.792;2023-02-18T06:01:08;15.80;56.20
50955;DHT22;36966;48.064;-0.792;2023-02-18T06:03:28;15.80;56.10
50955;DHT22;36966;48.064;-0.792;2023-02-18T06:05:51;15.80;56.10
50955;DHT22;36966;48.064;-0.792;2023-02-18T06:08:10;15.80;56.00
50955;DHT22;36966;48.064;-0.792;2023-02-18T06:10:29;15.80;55.90
50955;DHT22;36966;48.064;-0.792;2023-02-18T06:12:48;15.80;55.90
50955;DHT22;36966;48.064;-0.792;2023-02-18T06:15:07;15.80;55.80
50955;DHT22;36966;48.064;-0.792;2023-02-18T06:17:27;15.80;55.80
50955;DHT22;36966;48.064;-0.792;2023-02-18T06:19:46;15.90;55.80
50955;DHT22;36966;48.064;-0.792;2023-02-18T06:22:06;15.90;55.70
50955;DHT22;36966;48.064;-0.792;2023-02-18T06:24:25;15.80;55.70
50955;DHT22;36966;48.064;-0.792;2023-02-18T06:26:44;15.80;55.60
50955;DHT22;36966;48.064;-0.792;2023-02-18T06:29:03;15.80;55.60
50955;DHT22;36966;48.064;-0.792;2023-02-18T06:31:22;15.80;55.50
50955;DHT22;36966;48.064;-0.792;2023-02-18T06:33:42;15.80;55.50
50955;DHT22;36966;48.064;-0.792;2023-02-18T06:36:04;15.90;55.50
50955;DHT22;36966;48.064;-0.792;2023-02-18T06:38:29;15.90;55.50
50955;DHT22;36966;48.064;-0.792;2023-02-18T06:40:48;15.90;55.40
50955;DHT22;36966;48.064;-0.792;2023-02-18T06:43:08;15.80;55.40
50955;DHT22;36966;48.064;-0.792;2023-02-18T06:45:27;15.80;55.40
50955;DHT22;36966;48.064;-0.792;2023-02-18T06:47:46;15.80;55.40
50955;DHT22;36966;48.064;-0.792;2023-02-18T06:50:06;15.90;55.40
50955;DHT22;36966;48.064;-0.792;2023-02-18T06:52:26;15.90;55.40
50955;DHT22;36966;48.064;-0.792;2023-02-18T06:54:45;15.90;55.30
50955;DHT22;36966;48.064;-0.792;2023-02-18T06:57:04;15.80;55.30
50955;DHT22;36966;48.064;-0.792;2023-02-18T06:59:24;15.80;55.30
50955;DHT22;36966;48.064;-0.792;2023-02-18T07:01:42;15.80;55.30
50955;DHT22;36966;48.064;-0.792;2023-02-18T07:04:01;15.90;55.40
50955;DHT22;36966;48.064;-0.792;2023-02-18T07:06:21;15.90;55.30
50955;DHT22;36966;48.064;-0.792;2023-02-18T07:08:40;15.90;55.30
50955;DHT22;36966;48.064;-0.792;2023-02-18T07:10:59;15.80;55.40
50955;DHT22;36966;48.064;-0.792;2023-02-18T07:13:18;15.90;55.40
50955;DHT22;36966;48.064;-0.792;2023-02-18T07:15:38;15.80;55.40
50955;DHT22;36966;48.064;-0.792;2023-02-18T07:17:57;15.90;55.40
50955;DHT22;36966;48.064;-0.792;2023-02-18T07:20:18;15.80;55.40
50955;DHT22;36966;48.064;-0.792;2023-02-18T07:22:37;15.90;55.40
50955;DHT22;36966;48.064;-0.792;2023-02-18T07:24:56;15.80;55.40
50955;DHT22;36966;48.064;-0.792;2023-02-18T07:27:15;15.90;55.40
50955;DHT22;36966;48.064;-0.792;2023-02-18T07:29:35;15.90;55.50
50955;DHT22;36966;48.064;-0.792;2023-02-18T07:31:54;15.80;55.40
50955;DHT22;36966;48.064;-0.792;2023-02-18T07:34:13;15.90;55.40
50955;DHT22;36966;48.064;-0.792;2023-02-18T07:36:32;15.80;55.40
50955;DHT22;36966;48.064;-0.792;2023-02-18T07:38:51;15.80;55.40
50955;DHT22;36966;48.064;-0.792;2023-02-18T07:41:19;15.80;55.50
50955;DHT22;36966;48.064;-0.792;2023-02-18T07:43:39;15.90;55.50
50955;DHT22;36966;48.064;-0.792;2023-02-18T07:45:58;15.90;55.50
50955;DHT22;36966;48.064;-0.792;2023-02-18T07:48:17;15.80;55.50
50955;DHT22;36966;48.064;-0.792;2023-02-18T07:50:39;15.90;55.50
50955;DHT22;36966;48.064;-0.792;2023-02-18T07:52:59;15.80;55.50
50955;DHT22;36966;48.064;-0.792;2023-02-18T07:55:18;15.90;55.50
50955;DHT22;36966;48.064;-0.792;2023-02-18T07:57:37;15.80;55.50
50955;DHT22;36966;48.064;-0.792;2023-02-18T08:00:15;15.90;55.50
50955;DHT22;36966;48.064;-0.792;2023-02-18T08:02:35;15.90;55.40
50955;DHT22;36966;48.064;-0.792;2023-02-18T08:04:54;15.90;55.40
50955;DHT22;36966;48.064;-0.792;2023-02-18T08:07:15;15.80;55.40
50955;DHT22;36966;48.064;-0.792;2023-02-18T08:09:34;15.90;55.40
50955;DHT22;36966;48.064;-0.792;2023-02-18T08:11:54;15.80;55.30
50955;DHT22;36966;48.064;-0.792;2023-02-18T08:14:13;15.90;55.40
50955;DHT22;36966;48.064;-0.792;2023-02-18T08:16:32;15.90;55.40
50955;DHT22;36966;48.064;-0.792;2023-02-18T08:18:52;15.90;55.30
50955;DHT22;36966;48.064;-0.792;2023-02-18T08:21:13;15.90;55.40
50955;DHT22;36966;48.064;-0.792;2023-02-18T08:23:33;15.90;55.40
50955;DHT22;36966;48.064;-0.792;2023-02-18T08:25:53;15.90;55.40
50955;DHT22;36966;48.064;-0.792;2023-02-18T08:28:12;15.90;55.40
50955;DHT22;36966;48.064;-0.792;2023-02-18T08:30:31;15.90;55.50
50955;DHT22;36966;48.064;-0.792;2023-02-18T08:32:50;15.90;55.40
50955;DHT22;36966;48.064;-0.792;2023-02-18T08:35:11;15.90;55.30
50955;DHT22;36966;48.064;-0.792;2023-02-18T08:37:30;15.90;55.40
50955;DHT22;36966;48.064;-0.792;2023-02-18T08:39:49;15.90;55.40
50955;DHT22;36966;48.064;-0.792;2023-02-18T08:42:08;15.90;55.40
50955;DHT22;36966;48.064;-0.792;2023-02-18T08:44:28;15.90;55.40
50955;DHT22;36966;48.064;-0.792;2023-02-18T08:46:47;15.90;55.40
50955;DHT22;36966;48.064;-0.792;2023-02-18T08:49:07;15.80;55.40
50955;DHT22;36966;48.064;-0.792;2023-02-18T08:51:26;15.90;55.40
50955;DHT22;36966;48.064;-0.792;2023-02-18T08:53:46;15.90;55.40
50955;DHT22;36966;48.064;-0.792;2023-02-18T08:56:07;15.90;55.40
50955;DHT22;36966;48.064;-0.792;2023-02-18T08:58:27;15.90;55.30
50955;DHT22;36966;48.064;-0.792;2023-02-18T09:00:47;15.90;55.40
50955;DHT22;36966;48.064;-0.792;2023-02-18T09:03:06;15.90;55.40
50955;DHT22;36966;48.064;-0.792;2023-02-18T09:05:26;15.90;55.40
50955;DHT22;36966;48.064;-0.792;2023-02-18T09:07:46;15.90;55.30
50955;DHT22;36966;48.064;-0.792;2023-02-18T09:10:06;15.90;55.40
50955;DHT22;36966;48.064;-0.792;2023-02-18T09:12:25;15.90;55.30
50955;DHT22;36966;48.064;-0.792;2023-02-18T09:14:46;15.90;55.20
50955;DHT22;36966;48.064;-0.792;2023-02-18T09:17:06;15.90;55.20
50955;DHT22;36966;48.064;-0.792;2023-02-18T09:19:25;15.90;55.20
50955;DHT22;36966;48.064;-0.792;2023-02-18T09:21:44;15.90;55.20
50955;DHT22;36966;48.064;-0.792;2023-02-18T09:24:04;15.90;55.20
50955;DHT22;36966;48.064;-0.792;2023-02-18T09:26:23;15.90;55.20
50955;DHT22;36966;48.064;-0.792;2023-02-18T09:28:44;15.90;55.20
50955;DHT22;36966;48.064;-0.792;2023-02-18T09:31:14;15.90;55.10
50955;DHT22;36966;48.064;-0.792;2023-02-18T09:33:36;15.90;55.10
50955;DHT22;36966;48.064;-0.792;2023-02-18T09:35:56;15.90;55.10
50955;DHT22;36966;48.064;-0.792;2023-02-18T09:38:16;15.90;55.00
50955;DHT22;36966;48.064;-0.792;2023-02-18T09:40:39;15.90;55.00
50955;DHT22;36966;48.064;-0.792;2023-02-18T09:43:00;15.90;55.10
50955;DHT22;36966;48.064;-0.792;2023-02-18T09:45:21;15.90;55.10
50955;DHT22;36966;48.064;-0.792;2023-02-18T09:47:42;15.90;55.00
50955;DHT22;36966;48.064;-0.792;2023-02-18T09:50:16;16.00;55.00
50955;DHT22;36966;48.064;-0.792;2023-02-18T09:52:36;16.00;55.00
50955;DHT22;36966;48.064;-0.792;2023-02-18T09:54:56;15.90;55.00
50955;DHT22;36966;48.064;-0.792;2023-02-18T09:57:26;16.00;54.90
50955;DHT22;36966;48.064;-0.792;2023-02-18T09:59:48;16.00;54.90
50955;DHT22;36966;48.064;-0.792;2023-02-18T10:02:13;16.00;54.90
50955;DHT22;36966;48.064;-0.792;2023-02-18T10:04:43;15.90;54.90
50955;DHT22;36966;48.064;-0.792;2023-02-18T10:07:18;16.00;54.90
50955;DHT22;36966;48.064;-0.792;2023-02-18T10:09:39;16.00;54.90
50955;DHT22;36966;48.064;-0.792;2023-02-18T10:12:22;15.90;54.90
50955;DHT22;36966;48.064;-0.792;2023-02-18T10:14:44;15.90;54.90
50955;DHT22;36966;48.064;-0.792;2023-02-18T10:17:06;16.00;54.90
50955;DHT22;36966;48.064;-0.792;2023-02-18T10:19:34;15.90;54.80
50955;DHT22;36966;48.064;-0.792;2023-02-18T10:21:55;16.00;54.80
50955;DHT22;36966;48.064;-0.792;2023-02-18T10:26:53;16.00;54.80
50955;DHT22;36966;48.064;-0.792;2023-02-18T10:29:16;16.00;54.70
50955;DHT22;36966;48.064;-0.792;2023-02-18T10:31:42;16.00;54.70
50955;DHT22;36966;48.064;-0.792;2023-02-18T10:34:12;16.00;54.60
50955;DHT22;36966;48.064;-0.792;2023-02-18T10:52:02;16.00;54.40
50955;DHT22;36966;48.064;-0.792;2023-02-18T10:54:25;16.00;54.40
50955;DHT22;36966;48.064;-0.792;2023-02-18T10:56:50;16.00;54.50
50955;DHT22;36966;48.064;-0.792;2023-02-18T11:01:32;16.00;54.40
50955;DHT22;36966;48.064;-0.792;2023-02-18T11:04:02;16.00;54.30
50955;DHT22;36966;48.064;-0.792;2023-02-18T11:08:46;16.00;54.40
50955;DHT22;36966;48.064;-0.792;2023-02-18T11:11:22;16.00;54.40
50955;DHT22;36966;48.064;-0.792;2023-02-18T11:13:42;16.00;54.30
50955;DHT22;36966;48.064;-0.792;2023-02-18T11:16:05;16.00;54.30
50955;DHT22;36966;48.064;-0.792;2023-02-18T11:20:58;16.00;54.30
50955;DHT22;36966;48.064;-0.792;2023-02-18T11:23:20;16.00;54.30
50955;DHT22;36966;48.064;-0.792;2023-02-18T11:25:40;16.00;54.30
50955;DHT22;36966;48.064;-0.792;2023-02-18T11:30:35;16.00;54.30
50955;DHT22;36966;48.064;-0.792;2023-02-18T11:32:59;16.00;54.20
50955;DHT22;36966;48.064;-0.792;2023-02-18T11:35:24;16.00;54.20
50955;DHT22;36966;48.064;-0.792;2023-02-18T11:37:44;16.00;54.20
50955;DHT22;36966;48.064;-0.792;2023-02-18T11:40:04;16.00;54.20
50955;DHT22;36966;48.064;-0.792;2023-02-18T11:42:25;16.00;54.20
50955;DHT22;36966;48.064;-0.792;2023-02-18T11:44:56;16.00;54.20
50955;DHT22;36966;48.064;-0.792;2023-02-18T11:49:35;16.00;54.10
50955;DHT22;36966;48.064;-0.792;2023-02-18T11:51:55;16.00;54.10
50955;DHT22;36966;48.064;-0.792;2023-02-18T11:54:27;16.00;54.00
50955;DHT22;36966;48.064;-0.792;2023-02-18T11:57:14;16.00;54.10
50955;DHT22;36966;48.064;-0.792;2023-02-18T11:59:39;16.00;54.00
50955;DHT22;36966;48.064;-0.792;2023-02-18T12:02:05;16.00;54.00
50955;DHT22;36966;48.064;-0.792;2023-02-18T12:04:44;16.00;53.90
50955;DHT22;36966;48.064;-0.792;2023-02-18T12:07:18;16.00;53.80
50955;DHT22;36966;48.064;-0.792;2023-02-18T12:09:43;16.00;53.80
50955;DHT22;36966;48.064;-0.792;2023-02-18T12:15:25;16.00;53.80
50955;DHT22;36966;48.064;-0.792;2023-02-18T12:17:56;16.00;53.80
50955;DHT22;36966;48.064;-0.792;2023-02-18T12:23:28;16.00;53.80
50955;DHT22;36966;48.064;-0.792;2023-02-18T12:26:28;16.00;53.80
50955;DHT22;36966;48.064;-0.792;2023-02-18T12:34:07;16.00;53.80
50955;DHT22;36966;48.064;-0.792;2023-02-18T12:36:34;16.00;53.80
50955;DHT22;36966;48.064;-0.792;2023-02-18T12:39:27;16.00;53.80
50955;DHT22;36966;48.064;-0.792;2023-02-18T13:00:22;16.00;53.80
50955;DHT22;36966;48.064;-0.792;2023-02-18T13:05:42;16.00;53.90
50955;DHT22;36966;48.064;-0.792;2023-02-18T13:11:07;16.00;53.90
50955;DHT22;36966;48.064;-0.792;2023-02-18T13:13:34;16.00;53.80
50955;DHT22;36966;48.064;-0.792;2023-02-18T13:15:59;16.00;53.90
50955;DHT22;36966;48.064;-0.792;2023-02-18T13:18:42;16.00;53.80
50955;DHT22;36966;48.064;-0.792;2023-02-18T13:21:12;16.00;53.80
50955;DHT22;36966;48.064;-0.792;2023-02-18T13:23:35;16.00;53.70
50955;DHT22;36966;48.064;-0.792;2023-02-18T13:25:58;16.00;53.80
50955;DHT22;36966;48.064;-0.792;2023-02-18T13:28:36;16.00;53.80
50955;DHT22;36966;48.064;-0.792;2023-02-18T13:39:05;16.00;53.70
50955;DHT22;36966;48.064;-0.792;2023-02-18T13:41:26;16.00;53.70
50955;DHT22;36966;48.064;-0.792;2023-02-18T13:43:46;16.00;53.80
50955;DHT22;36966;48.064;-0.792;2023-02-18T13:46:21;16.00;53.80
50955;DHT22;36966;48.064;-0.792;2023-02-18T13:51:39;16.00;53.90
50955;DHT22;36966;48.064;-0.792;2023-02-18T13:56:33;16.00;53.80
50955;DHT22;36966;48.064;-0.792;2023-02-18T13:59:08;16.00;53.80
50955;DHT22;36966;48.064;-0.792;2023-02-18T14:03:54;16.00;53.80
50955;DHT22;36966;48.064;-0.792;2023-02-18T14:06:18;16.00;53.70
50955;DHT22;36966;48.064;-0.792;2023-02-18T14:08:39;16.00;53.80
50955;DHT22;36966;48.064;-0.792;2023-02-18T14:16:19;16.00;53.80
50955;DHT22;36966;48.064;-0.792;2023-02-18T14:23:56;16.00;53.70
50955;DHT22;36966;48.064;-0.792;2023-02-18T14:26:21;16.00;53.70
50955;DHT22;36966;48.064;-0.792;2023-02-18T14:28:48;16.00;53.60
50955;DHT22;36966;48.064;-0.792;2023-02-18T14:31:18;16.00;53.80
50955;DHT22;36966;48.064;-0.792;2023-02-18T14:36:35;16.00;53.80
50955;DHT22;36966;48.064;-0.792;2023-02-18T14:48:04;16.00;53.70
50955;DHT22;36966;48.064;-0.792;2023-02-18T14:50:04;16.00;53.80
50955;DHT22;36966;48.064;-0.792;2023-02-18T14:52:41;15.90;53.70
50955;DHT22;36966;48.064;-0.792;2023-02-18T14:55:04;16.00;53.80
50955;DHT22;36966;48.064;-0.792;2023-02-18T14:57:47;16.00;53.70
50955;DHT22;36966;48.064;-0.792;2023-02-18T15:00:17;15.90;53.60
50955;DHT22;36966;48.064;-0.792;2023-02-18T15:02:37;15.90;53.50
50955;DHT22;36966;48.064;-0.792;2023-02-18T15:05:19;16.00;53.50
50955;DHT22;36966;48.064;-0.792;2023-02-18T15:07:38;15.90;53.50
50955;DHT22;36966;48.064;-0.792;2023-02-18T15:09:57;15.90;53.50
50955;DHT22;36966;48.064;-0.792;2023-02-18T15:12:21;16.00;53.60
50955;DHT22;36966;48.064;-0.792;2023-02-18T15:14:42;15.90;53.60
50955;DHT22;36966;48.064;-0.792;2023-02-18T15:17:03;15.90;53.50
50955;DHT22;36966;48.064;-0.792;2023-02-18T15:19:26;16.00;53.50
50955;DHT22;36966;48.064;-0.792;2023-02-18T15:21:49;15.90;53.40
50955;DHT22;36966;48.064;-0.792;2023-02-18T15:26:42;15.90;53.50
50955;DHT22;36966;48.064;-0.792;2023-02-18T15:29:04;15.90;53.50
50955;DHT22;36966;48.064;-0.792;2023-02-18T15:31:27;15.90;53.50
50955;DHT22;36966;48.064;-0.792;2023-02-18T15:33:47;15.90;53.40
50955;DHT22;36966;48.064;-0.792;2023-02-18T15:36:12;15.90;53.40
50955;DHT22;36966;48.064;-0.792;2023-02-18T15:38:32;15.90;53.50
50955;DHT22;36966;48.064;-0.792;2023-02-18T15:40:52;15.90;53.50
50955;DHT22;36966;48.064;-0.792;2023-02-18T15:43:16;15.90;53.50
50955;DHT22;36966;48.064;-0.792;2023-02-18T15:45:40;15.90;53.60
50955;DHT22;36966;48.064;-0.792;2023-02-18T15:48:00;15.90;53.50
50955;DHT22;36966;48.064;-0.792;2023-02-18T15:50:33;15.90;53.60
50955;DHT22;36966;48.064;-0.792;2023-02-18T15:52:54;15.90;53.70
50955;DHT22;36966;48.064;-0.792;2023-02-18T15:55:30;15.90;53.60
50955;DHT22;36966;48.064;-0.792;2023-02-18T15:57:50;15.90;53.70
50955;DHT22;36966;48.064;-0.792;2023-02-18T16:00:15;15.80;53.70
50955;DHT22;36966;48.064;-0.792;2023-02-18T16:02:51;15.80;53.70
50955;DHT22;36966;48.064;-0.792;2023-02-18T16:05:14;15.80;53.70
50955;DHT22;36966;48.064;-0.792;2023-02-18T16:07:51;15.80;53.70
50955;DHT22;36966;48.064;-0.792;2023-02-18T16:12:39;15.90;53.70
50955;DHT22;36966;48.064;-0.792;2023-02-18T16:14:59;15.80;53.70
50955;DHT22;36966;48.064;-0.792;2023-02-18T16:17:21;15.90;53.70
50955;DHT22;36966;48.064;-0.792;2023-02-18T16:22:22;15.90;53.80
50955;DHT22;36966;48.064;-0.792;2023-02-18T16:24:42;15.80;53.70
50955;DHT22;36966;48.064;-0.792;2023-02-18T16:27:07;15.80;53.70
50955;DHT22;36966;48.064;-0.792;2023-02-18T16:29:40;15.80;53.70
50955;DHT22;36966;48.064;-0.792;2023-02-18T16:31:59;15.80;53.70
50955;DHT22;36966;48.064;-0.792;2023-02-18T16:34:18;15.80;53.70
50955;DHT22;36966;48.064;-0.792;2023-02-18T16:36:38;15.80;53.70
50955;DHT22;36966;48.064;-0.792;2023-02-18T16:39:17;15.80;53.60
50955;DHT22;36966;48.064;-0.792;2023-02-18T16:41:36;15.80;53.60
50955;DHT22;36966;48.064;-0.792;2023-02-18T16:43:56;15.90;53.60
50955;DHT22;36966;48.064;-0.792;2023-02-18T16:46:17;15.80;53.60
50955;DHT22;36966;48.064;-0.792;2023-02-18T16:48:41;15.80;53.60
50955;DHT22;36966;48.064;-0.792;2023-02-18T16:53:33;15.80;53.60
50955;DHT22;36966;48.064;-0.792;2023-02-18T16:55:52;15.80;53.60
50955;DHT22;36966;48.064;-0.792;2023-02-18T16:58:11;15.80;53.60
50955;DHT22;36966;48.064;-0.792;2023-02-18T17:00:31;15.80;53.50
50955;DHT22;36966;48.064;-0.792;2023-02-18T17:02:54;15.80;53.50
50955;DHT22;36966;48.064;-0.792;2023-02-18T17:05:20;15.80;53.50
50955;DHT22;36966;48.064;-0.792;2023-02-18T17:07:39;15.80;53.50
50955;DHT22;36966;48.064;-0.792;2023-02-18T17:09:58;15.80;53.50
50955;DHT22;36966;48.064;-0.792;2023-02-18T17:12:18;15.80;53.50
50955;DHT22;36966;48.064;-0.792;2023-02-18T17:14:37;15.80;53.50
50955;DHT22;36966;48.064;-0.792;2023-02-18T17:16:56;15.80;53.50